Sandy Hook, Connecticut
Current Conditions -  °F | °C
As of 8:45 AM on Friday 19 Dec 2014 (Local Time) from KOXC Reporting Station
Overcast Overcast  
Wind Chill: -5°   Ceiling: 3300
Heat Index:   Visibility: 10mi
Dew Point: -8°   Wind: 12mph
Humidity: 55%   Direction: 350°N
Pressure: 29.99"   Gusts: 17mph
Location:  41.42°N, 73.28°W
Report Text: KOXC 191345Z 35010G15KT 10SM OVC033 00/M08 A2999
Loading
Personal Weather Stations






























Interactive Weather Map New forecast layout! Learn more

10-Day Weather Forecast

Advertisements
Track Severe Weather on mobile